Lee, IL (60530)

10:43 AM CDT on September 05, 2015 (GMT -0500)
Rochelle | | Change Station
CLOSE
Current Station
Airport
Location: Rochelle,
Elevation: 781 ft
Nearby Weather Stations

Elev 781 ft 41.89 °N, 89.08 °W | Updated 8 minutes ago

Overcast
Overcast
75 °F
Feels Like 75 °F
N
0
Wind Variable Wind from North

Today
High -- | Low -- °F
--% Chance of Precip.
Yesterday
High -- | Low -- °F
Precip. -- in
6:25 AM 7:22 PM
Waning Gibbous, 47% visible
Pressure 30.11 in
Visibility 7.0 miles
Clouds Scattered Clouds 11000 ft
Dew Point 72 °F
Humidity 89%
Rainfall 0.84 in
Snow Depth Not available.
UV 5 out of 12
Pollen 4.90 out of 12
Air Quality Not available.
Flu Activity Not available.
METAR KRPJ 051535Z AUTO 00000KT 7SM SCT110 24/22 A3011 RMK AO2 LTG DSNT SE AND S T02410222
Pressure 30.11 in
Visibility 7.0 miles
Clouds Scattered Clouds 11000 ft
Dew Point 72 °F
Humidity 89%
Rainfall 0.84 in
Snow Depth Not available.
UV 5 out of 12
Pollen 4.90 out of 12
Air Quality Not available.
Flu Activity Not available.
METAR KRPJ 051535Z AUTO 00000KT 7SM SCT110 24/22 A3011 RMK AO2 LTG DSNT SE AND S T02410222

10-Day Weather Forecast

×

Almanac

Astronomy

Sep. 05, 2015 Rise Set
Actual Time
Civil Twilight
Nautical Twilight
Astronomical Twilight
Moon
Length of Visible Light
Length of Day
Tomorrow will be .
, % of the Moon is Illuminated

Today's Extremes

State Highs State Lows

Community

WunderPhotos

Upload Photos

1,852,483 photos uploaded!

WunderBlogs® & News

Nearby

Air Quality

  Air Quality AQ Index Pollutant
Not available.

Snow Depth

Station Depth Elevation

Earthquake Activity

City Distance Mag. Time & Date
Minimum magnitude displayed is 2.5.

Coastal Water Temperatures

Place Temperature

Stations

Nearby Weather Stations

Station Location Temp. Windchill Dew Point Humidity Wind Precip. Elev Updated Type